sensor_id;sensor_type;location;lat;lon;timestamp;temperature;humidity
5850;DHT22;2951;47.712;9.400;2023-10-09T00:00:11;12.40;99.90
5850;DHT22;2951;47.712;9.400;2023-10-09T00:02:57;12.30;99.90
5850;DHT22;2951;47.712;9.400;2023-10-09T00:05:27;12.40;99.90
5850;DHT22;2951;47.712;9.400;2023-10-09T00:08:14;12.30;99.90
5850;DHT22;2951;47.712;9.400;2023-10-09T00:11:00;12.30;99.90
5850;DHT22;2951;47.712;9.400;2023-10-09T00:13:43;12.30;99.90
5850;DHT22;2951;47.712;9.400;2023-10-09T00:16:18;12.20;99.90
5850;DHT22;2951;47.712;9.400;2023-10-09T00:19:01;12.20;99.90
5850;DHT22;2951;47.712;9.400;2023-10-09T00:21:44;12.20;99.90
5850;DHT22;2951;47.712;9.400;2023-10-09T00:24:15;12.20;99.90
5850;DHT22;2951;47.712;9.400;2023-10-09T00:26:51;12.10;99.90
5850;DHT22;2951;47.712;9.400;2023-10-09T00:29:19;12.10;99.90
5850;DHT22;2951;47.712;9.400;2023-10-09T00:31:50;12.10;99.90
5850;DHT22;2951;47.712;9.400;2023-10-09T00:34:17;12.10;99.90
5850;DHT22;2951;47.712;9.400;2023-10-09T00:36:46;11.90;99.90
5850;DHT22;2951;47.712;9.400;2023-10-09T00:39:20;11.90;99.90
5850;DHT22;2951;47.712;9.400;2023-10-09T00:42:04;11.90;99.90
5850;DHT22;2951;47.712;9.400;2023-10-09T00:44:33;11.80;99.90
5850;DHT22;2951;47.712;9.400;2023-10-09T00:47:14;11.80;99.90
5850;DHT22;2951;47.712;9.400;2023-10-09T00:52:35;11.80;99.90
5850;DHT22;2951;47.712;9.400;2023-10-09T00:55:32;11.80;99.90
5850;DHT22;2951;47.712;9.400;2023-10-09T00:58:22;11.80;99.90
5850;DHT22;2951;47.712;9.400;2023-10-09T01:00:53;11.70;99.90
5850;DHT22;2951;47.712;9.400;2023-10-09T01:03:20;11.70;99.90
5850;DHT22;2951;47.712;9.400;2023-10-09T01:05:54;11.70;99.90
5850;DHT22;2951;47.712;9.400;2023-10-09T01:08:21;11.70;99.90
5850;DHT22;2951;47.712;9.400;2023-10-09T01:11:14;11.70;99.90
5850;DHT22;2951;47.712;9.400;2023-10-09T01:13:56;11.50;99.90
5850;DHT22;2951;47.712;9.400;2023-10-09T01:16:35;11.50;99.90
5850;DHT22;2951;47.712;9.400;2023-10-09T01:19:02;11.60;99.90
5850;DHT22;2951;47.712;9.400;2023-10-09T01:21:40;11.60;99.90
5850;DHT22;2951;47.712;9.400;2023-10-09T01:24:06;11.50;99.90
5850;DHT22;2951;47.712;9.400;2023-10-09T01:26:39;11.40;99.90
5850;DHT22;2951;47.712;9.400;2023-10-09T01:29:12;11.30;99.90
5850;DHT22;2951;47.712;9.400;2023-10-09T01:31:57;11.30;99.90
5850;DHT22;2951;47.712;9.400;2023-10-09T01:34:28;11.30;99.90
5850;DHT22;2951;47.712;9.400;2023-10-09T01:37:12;11.30;99.90
5850;DHT22;2951;47.712;9.400;2023-10-09T01:39:46;11.40;99.90
5850;DHT22;2951;47.712;9.400;2023-10-09T01:42:15;11.30;99.90
5850;DHT22;2951;47.712;9.400;2023-10-09T01:45:05;11.20;99.90
5850;DHT22;2951;47.712;9.400;2023-10-09T01:47:38;11.20;99.90
5850;DHT22;2951;47.712;9.400;2023-10-09T01:50:07;11.30;99.90
5850;DHT22;2951;47.712;9.400;2023-10-09T01:52:46;11.30;99.90
5850;DHT22;2951;47.712;9.400;2023-10-09T01:55:16;11.30;99.90
5850;DHT22;2951;47.712;9.400;2023-10-09T01:57:55;11.30;99.90
5850;DHT22;2951;47.712;9.400;2023-10-09T02:00:25;11.40;99.90
5850;DHT22;2951;47.712;9.400;2023-10-09T02:02:55;11.20;99.90
5850;DHT22;2951;47.712;9.400;2023-10-09T02:05:23;11.20;99.90
5850;DHT22;2951;47.712;9.400;2023-10-09T02:07:51;11.10;99.90
5850;DHT22;2951;47.712;9.400;2023-10-09T02:10:19;11.00;99.90
5850;DHT22;2951;47.712;9.400;2023-10-09T02:13:02;11.00;99.90
5850;DHT22;2951;47.712;9.400;2023-10-09T02:15:38;11.10;99.90
5850;DHT22;2951;47.712;9.400;2023-10-09T02:18:12;11.00;99.90
5850;DHT22;2951;47.712;9.400;2023-10-09T02:20:46;11.00;99.90
5850;DHT22;2951;47.712;9.400;2023-10-09T02:23:14;11.00;99.90
5850;DHT22;2951;47.712;9.400;2023-10-09T02:25:47;11.00;99.90
5850;DHT22;2951;47.712;9.400;2023-10-09T02:28:19;11.00;99.90
5850;DHT22;2951;47.712;9.400;2023-10-09T02:30:46;11.00;99.90
5850;DHT22;2951;47.712;9.400;2023-10-09T02:33:17;11.00;99.90
5850;DHT22;2951;47.712;9.400;2023-10-09T02:35:57;11.00;99.90
5850;DHT22;2951;47.712;9.400;2023-10-09T02:38:28;10.90;99.90
5850;DHT22;2951;47.712;9.400;2023-10-09T02:40:58;10.70;99.90
5850;DHT22;2951;47.712;9.400;2023-10-09T02:43:34;10.70;99.90
5850;DHT22;2951;47.712;9.400;2023-10-09T02:46:19;10.60;99.90
5850;DHT22;2951;47.712;9.400;2023-10-09T02:48:57;10.70;99.90
5850;DHT22;2951;47.712;9.400;2023-10-09T02:51:24;10.70;99.90
5850;DHT22;2951;47.712;9.400;2023-10-09T02:53:55;10.60;99.90
5850;DHT22;2951;47.712;9.400;2023-10-09T02:56:26;10.60;99.90
5850;DHT22;2951;47.712;9.400;2023-10-09T02:59:09;10.60;99.90
5850;DHT22;2951;47.712;9.400;2023-10-09T03:01:38;10.70;99.90
5850;DHT22;2951;47.712;9.400;2023-10-09T03:04:06;10.60;99.90
5850;DHT22;2951;47.712;9.400;2023-10-09T03:06:35;10.70;99.90
5850;DHT22;2951;47.712;9.400;2023-10-09T03:09:06;10.70;99.90
5850;DHT22;2951;47.712;9.400;2023-10-09T03:11:44;10.70;99.90
5850;DHT22;2951;47.712;9.400;2023-10-09T03:14:10;10.70;99.90
5850;DHT22;2951;47.712;9.400;2023-10-09T03:16:37;10.70;99.90
5850;DHT22;2951;47.712;9.400;2023-10-09T03:19:05;10.70;99.90
5850;DHT22;2951;47.712;9.400;2023-10-09T03:21:32;10.70;99.90
5850;DHT22;2951;47.712;9.400;2023-10-09T03:23:58;10.80;99.90
5850;DHT22;2951;47.712;9.400;2023-10-09T03:26:27;10.70;99.90
5850;DHT22;2951;47.712;9.400;2023-10-09T03:28:53;10.70;99.90
5850;DHT22;2951;47.712;9.400;2023-10-09T03:31:20;10.70;99.90
5850;DHT22;2951;47.712;9.400;2023-10-09T03:33:50;10.60;99.90
5850;DHT22;2951;47.712;9.400;2023-10-09T03:36:17;10.70;99.90
5850;DHT22;2951;47.712;9.400;2023-10-09T03:38:44;10.70;99.90
5850;DHT22;2951;47.712;9.400;2023-10-09T03:41:13;10.70;99.90
5850;DHT22;2951;47.712;9.400;2023-10-09T03:43:42;10.70;99.90
5850;DHT22;2951;47.712;9.400;2023-10-09T03:46:12;10.70;99.90
5850;DHT22;2951;47.712;9.400;2023-10-09T03:48:50;10.70;99.90
5850;DHT22;2951;47.712;9.400;2023-10-09T03:51:18;10.70;99.90
5850;DHT22;2951;47.712;9.400;2023-10-09T03:53:49;10.70;99.90
5850;DHT22;2951;47.712;9.400;2023-10-09T03:56:17;10.70;99.90
5850;DHT22;2951;47.712;9.400;2023-10-09T03:58:50;10.70;99.90
5850;DHT22;2951;47.712;9.400;2023-10-09T04:01:20;10.60;99.90
5850;DHT22;2951;47.712;9.400;2023-10-09T04:03:56;10.60;99.90
5850;DHT22;2951;47.712;9.400;2023-10-09T04:06:27;10.60;99.90
5850;DHT22;2951;47.712;9.400;2023-10-09T04:09:07;10.40;99.90
5850;DHT22;2951;47.712;9.400;2023-10-09T04:14:13;10.30;99.90
5850;DHT22;2951;47.712;9.400;2023-10-09T04:16:56;10.30;99.90
5850;DHT22;2951;47.712;9.400;2023-10-09T04:19:41;10.30;99.90
5850;DHT22;2951;47.712;9.400;2023-10-09T04:22:14;10.30;99.90
5850;DHT22;2951;47.712;9.400;2023-10-09T04:24:53;10.30;99.90
5850;DHT22;2951;47.712;9.400;2023-10-09T04:27:20;10.40;99.90
5850;DHT22;2951;47.712;9.400;2023-10-09T04:30:02;10.40;99.90
5850;DHT22;2951;47.712;9.400;2023-10-09T04:32:29;10.30;99.90
5850;DHT22;2951;47.712;9.400;2023-10-09T04:34:56;10.30;99.90
5850;DHT22;2951;47.712;9.400;2023-10-09T04:37:42;10.30;99.90
5850;DHT22;2951;47.712;9.400;2023-10-09T04:40:11;10.30;99.90
5850;DHT22;2951;47.712;9.400;2023-10-09T04:43:00;10.30;99.90
5850;DHT22;2951;47.712;9.400;2023-10-09T04:45:38;10.40;99.90
5850;DHT22;2951;47.712;9.400;2023-10-09T04:48:28;10.40;99.90
5850;DHT22;2951;47.712;9.400;2023-10-09T04:51:05;10.30;99.90
5850;DHT22;2951;47.712;9.400;2023-10-09T04:53:48;10.40;99.90
5850;DHT22;2951;47.712;9.400;2023-10-09T04:56:27;10.40;99.90
5850;DHT22;2951;47.712;9.400;2023-10-09T04:58:58;10.40;99.90
5850;DHT22;2951;47.712;9.400;2023-10-09T05:01:30;10.40;99.90
5850;DHT22;2951;47.712;9.400;2023-10-09T05:04:03;10.50;99.90
5850;DHT22;2951;47.712;9.400;2023-10-09T05:06:50;10.50;99.90
5850;DHT22;2951;47.712;9.400;2023-10-09T05:09:24;10.40;99.90
5850;DHT22;2951;47.712;9.400;2023-10-09T05:11:52;10.40;99.90
5850;DHT22;2951;47.712;9.400;2023-10-09T05:14:19;10.40;99.90
5850;DHT22;2951;47.712;9.400;2023-10-09T05:16:55;10.30;99.90
5850;DHT22;2951;47.712;9.400;2023-10-09T05:19:27;10.30;99.90
5850;DHT22;2951;47.712;9.400;2023-10-09T05:22:11;10.30;99.90
5850;DHT22;2951;47.712;9.400;2023-10-09T05:25:02;10.30;99.90
5850;DHT22;2951;47.712;9.400;2023-10-09T05:27:41;10.40;99.90
5850;DHT22;2951;47.712;9.400;2023-10-09T05:30:17;10.50;99.90
5850;DHT22;2951;47.712;9.400;2023-10-09T05:32:54;10.50;99.90
5850;DHT22;2951;47.712;9.400;2023-10-09T05:35:40;10.50;99.90
5850;DHT22;2951;47.712;9.400;2023-10-09T05:38:27;10.50;99.90
5850;DHT22;2951;47.712;9.400;2023-10-09T05:40:57;10.40;99.90
5850;DHT22;2951;47.712;9.400;2023-10-09T05:43:43;10.40;99.90
5850;DHT22;2951;47.712;9.400;2023-10-09T05:46:51;10.40;99.90
5850;DHT22;2951;47.712;9.400;2023-10-09T05:49:36;10.40;99.90
5850;DHT22;2951;47.712;9.400;2023-10-09T05:52:13;10.40;99.90
5850;DHT22;2951;47.712;9.400;2023-10-09T05:54:59;10.40;99.90
5850;DHT22;2951;47.712;9.400;2023-10-09T05:57:45;10.30;99.90
5850;DHT22;2951;47.712;9.400;2023-10-09T06:00:32;10.30;99.90
5850;DHT22;2951;47.712;9.400;2023-10-09T06:03:17;10.40;99.90
5850;DHT22;2951;47.712;9.400;2023-10-09T06:05:48;10.40;99.90
5850;DHT22;2951;47.712;9.400;2023-10-09T06:08:24;10.40;99.90
5850;DHT22;2951;47.712;9.400;2023-10-09T06:10:54;10.30;99.90
5850;DHT22;2951;47.712;9.400;2023-10-09T06:13:32;10.40;99.90
5850;DHT22;2951;47.712;9.400;2023-10-09T06:16:14;10.50;99.90
5850;DHT22;2951;47.712;9.400;2023-10-09T06:18:58;10.40;99.90
5850;DHT22;2951;47.712;9.400;2023-10-09T06:21:43;10.50;99.90
5850;DHT22;2951;47.712;9.400;2023-10-09T06:24:19;10.60;99.90
5850;DHT22;2951;47.712;9.400;2023-10-09T06:26:47;10.70;99.90
5850;DHT22;2951;47.712;9.400;2023-10-09T06:29:29;10.80;99.90
5850;DHT22;2951;47.712;9.400;2023-10-09T06:32:03;10.90;99.90
5850;DHT22;2951;47.712;9.400;2023-10-09T06:34:45;10.90;99.90
5850;DHT22;2951;47.712;9.400;2023-10-09T06:37:13;10.90;99.90
5850;DHT22;2951;47.712;9.400;2023-10-09T06:40:01;10.90;99.90
5850;DHT22;2951;47.712;9.400;2023-10-09T06:42:57;11.10;99.90
5850;DHT22;2951;47.712;9.400;2023-10-09T06:45:23;11.20;99.90
5850;DHT22;2951;47.712;9.400;2023-10-09T06:48:13;11.30;99.90
5850;DHT22;2951;47.712;9.400;2023-10-09T06:51:05;11.50;99.90
5850;DHT22;2951;47.712;9.400;2023-10-09T06:53:54;11.40;99.90
5850;DHT22;2951;47.712;9.400;2023-10-09T06:56:24;11.40;99.90
5850;DHT22;2951;47.712;9.400;2023-10-09T06:58:58;11.50;99.90
5850;DHT22;2951;47.712;9.400;2023-10-09T07:01:26;11.50;99.90
5850;DHT22;2951;47.712;9.400;2023-10-09T07:04:08;11.80;99.90
5850;DHT22;2951;47.712;9.400;2023-10-09T07:07:01;11.80;99.90
5850;DHT22;2951;47.712;9.400;2023-10-09T07:09:29;11.90;99.90
5850;DHT22;2951;47.712;9.400;2023-10-09T07:12:15;12.10;99.90
5850;DHT22;2951;47.712;9.400;2023-10-09T07:14:53;12.30;99.90
5850;DHT22;2951;47.712;9.400;2023-10-09T07:17:23;12.40;99.90
5850;DHT22;2951;47.712;9.400;2023-10-09T07:19:53;12.50;99.90
5850;DHT22;2951;47.712;9.400;2023-10-09T07:22:20;12.70;99.90
5850;DHT22;2951;47.712;9.400;2023-10-09T07:24:48;12.80;99.90
5850;DHT22;2951;47.712;9.400;2023-10-09T07:27:25;12.90;99.90
5850;DHT22;2951;47.712;9.400;2023-10-09T07:30:12;13.10;99.90
5850;DHT22;2951;47.712;9.400;2023-10-09T07:33:04;13.10;99.90
5850;DHT22;2951;47.712;9.400;2023-10-09T07:35:39;13.30;99.90
5850;DHT22;2951;47.712;9.400;2023-10-09T07:38:24;13.30;99.90
5850;DHT22;2951;47.712;9.400;2023-10-09T07:40:55;13.50;99.90
5850;DHT22;2951;47.712;9.400;2023-10-09T07:43:23;13.50;99.90
5850;DHT22;2951;47.712;9.400;2023-10-09T07:45:55;13.70;99.90
5850;DHT22;2951;47.712;9.400;2023-10-09T07:51:22;13.90;99.90
5850;DHT22;2951;47.712;9.400;2023-10-09T07:54:00;14.00;99.90
5850;DHT22;2951;47.712;9.400;2023-10-09T07:56:34;14.10;99.90
5850;DHT22;2951;47.712;9.400;2023-10-09T07:59:21;14.30;99.90
5850;DHT22;2951;47.712;9.400;2023-10-09T08:01:50;14.40;99.90
5850;DHT22;2951;47.712;9.400;2023-10-09T08:04:31;14.50;99.90
5850;DHT22;2951;47.712;9.400;2023-10-09T08:07:16;14.60;99.90
5850;DHT22;2951;47.712;9.400;2023-10-09T08:10:07;14.80;99.90
5850;DHT22;2951;47.712;9.400;2023-10-09T08:12:41;14.80;99.90
5850;DHT22;2951;47.712;9.400;2023-10-09T08:15:11;14.90;99.90
5850;DHT22;2951;47.712;9.400;2023-10-09T08:17:48;14.90;99.90
5850;DHT22;2951;47.712;9.400;2023-10-09T08:20:26;15.00;99.90
5850;DHT22;2951;47.712;9.400;2023-10-09T08:22:53;15.10;99.90
5850;DHT22;2951;47.712;9.400;2023-10-09T08:25:24;15.10;99.90
5850;DHT22;2951;47.712;9.400;2023-10-09T08:27:55;15.30;99.90
5850;DHT22;2951;47.712;9.400;2023-10-09T08:30:24;15.40;99.90
5850;DHT22;2951;47.712;9.400;2023-10-09T08:32:54;15.60;99.90
5850;DHT22;2951;47.712;9.400;2023-10-09T08:35:40;15.70;99.90
5850;DHT22;2951;47.712;9.400;2023-10-09T08:38:15;15.80;99.90
5850;DHT22;2951;47.712;9.400;2023-10-09T08:40:50;16.00;99.90
5850;DHT22;2951;47.712;9.400;2023-10-09T08:43:18;16.10;99.90
5850;DHT22;2951;47.712;9.400;2023-10-09T08:45:49;16.20;99.90
5850;DHT22;2951;47.712;9.400;2023-10-09T08:48:20;16.30;99.90
5850;DHT22;2951;47.712;9.400;2023-10-09T08:50:53;16.40;99.90
5850;DHT22;2951;47.712;9.400;2023-10-09T08:53:24;16.50;99.90
5850;DHT22;2951;47.712;9.400;2023-10-09T08:55:54;16.50;99.90
5850;DHT22;2951;47.712;9.400;2023-10-09T08:58:22;16.60;99.90
5850;DHT22;2951;47.712;9.400;2023-10-09T09:00:55;16.70;99.90
5850;DHT22;2951;47.712;9.400;2023-10-09T09:03:22;16.70;99.90
5850;DHT22;2951;47.712;9.400;2023-10-09T09:05:59;16.80;99.90
5850;DHT22;2951;47.712;9.400;2023-10-09T09:08:30;17.00;99.90
5850;DHT22;2951;47.712;9.400;2023-10-09T09:13:26;17.30;99.90
5850;DHT22;2951;47.712;9.400;2023-10-09T09:15:58;17.50;99.90
5850;DHT22;2951;47.712;9.400;2023-10-09T09:18:25;17.60;99.90
5850;DHT22;2951;47.712;9.400;2023-10-09T09:20:58;17.70;99.90
5850;DHT22;2951;47.712;9.400;2023-10-09T09:23:25;17.80;99.90
5850;DHT22;2951;47.712;9.400;2023-10-09T09:25:53;17.90;99.90
5850;DHT22;2951;47.712;9.400;2023-10-09T09:28:29;18.00;99.90
5850;DHT22;2951;47.712;9.400;2023-10-09T09:31:08;18.10;99.90
5850;DHT22;2951;47.712;9.400;2023-10-09T09:33:42;18.20;99.90
5850;DHT22;2951;47.712;9.400;2023-10-09T09:36:14;18.60;99.90
5850;DHT22;2951;47.712;9.400;2023-10-09T09:38:41;18.60;99.90
5850;DHT22;2951;47.712;9.400;2023-10-09T09:41:15;18.60;99.90
5850;DHT22;2951;47.712;9.400;2023-10-09T09:43:53;18.70;99.90
5850;DHT22;2951;47.712;9.400;2023-10-09T09:46:26;18.50;99.90
5850;DHT22;2951;47.712;9.400;2023-10-09T09:49:01;18.70;99.90
5850;DHT22;2951;47.712;9.400;2023-10-09T09:51:31;18.90;99.90
5850;DHT22;2951;47.712;9.400;2023-10-09T09:53:58;19.20;99.90
5850;DHT22;2951;47.712;9.400;2023-10-09T09:56:25;19.10;99.90
5850;DHT22;2951;47.712;9.400;2023-10-09T09:58:53;19.30;99.90
5850;DHT22;2951;47.712;9.400;2023-10-09T10:01:26;19.40;99.90
5850;DHT22;2951;47.712;9.400;2023-10-09T10:03:57;19.60;99.90
5850;DHT22;2951;47.712;9.400;2023-10-09T10:06:25;19.60;99.90
5850;DHT22;2951;47.712;9.400;2023-10-09T10:08:54;19.60;99.90
5850;DHT22;2951;47.712;9.400;2023-10-09T10:14:08;19.50;99.90
5850;DHT22;2951;47.712;9.400;2023-10-09T10:19:23;19.70;99.90
5850;DHT22;2951;47.712;9.400;2023-10-09T10:21:50;19.80;99.90
5850;DHT22;2951;47.712;9.400;2023-10-09T10:29:47;20.00;99.90
5850;DHT22;2951;47.712;9.400;2023-10-09T10:35:18;20.00;99.90
5850;DHT22;2951;47.712;9.400;2023-10-09T10:37:47;20.10;99.90
5850;DHT22;2951;47.712;9.400;2023-10-09T10:40:24;20.20;99.90
5850;DHT22;2951;47.712;9.400;2023-10-09T10:43:07;20.30;99.90
5850;DHT22;2951;47.712;9.400;2023-10-09T10:46:05;20.30;99.90
5850;DHT22;2951;47.712;9.400;2023-10-09T10:48:33;20.30;99.90
5850;DHT22;2951;47.712;9.400;2023-10-09T10:51:05;20.40;99.90
5850;DHT22;2951;47.712;9.400;2023-10-09T10:53:32;20.40;99.90
5850;DHT22;2951;47.712;9.400;2023-10-09T10:56:14;20.30;99.90
5850;DHT22;2951;47.712;9.400;2023-10-09T10:58:41;20.50;99.90
5850;DHT22;2951;47.712;9.400;2023-10-09T11:01:34;20.60;99.90
5850;DHT22;2951;47.712;9.400;2023-10-09T11:04:30;20.60;99.90
5850;DHT22;2951;47.712;9.400;2023-10-09T11:07:02;20.80;99.90
5850;DHT22;2951;47.712;9.400;2023-10-09T11:12:28;20.90;99.90
5850;DHT22;2951;47.712;9.400;2023-10-09T11:15:09;21.00;99.90
5850;DHT22;2951;47.712;9.400;2023-10-09T11:18:00;21.00;99.90
5850;DHT22;2951;47.712;9.400;2023-10-09T11:20:32;21.00;99.90
5850;DHT22;2951;47.712;9.400;2023-10-09T11:23:00;21.10;99.90
5850;DHT22;2951;47.712;9.400;2023-10-09T11:25:39;21.20;99.90
5850;DHT22;2951;47.712;9.400;2023-10-09T11:28:17;21.40;99.90
5850;DHT22;2951;47.712;9.400;2023-10-09T11:31:09;21.60;99.90
5850;DHT22;2951;47.712;9.400;2023-10-09T11:33:49;21.70;99.90
5850;DHT22;2951;47.712;9.400;2023-10-09T11:36:20;21.90;99.90
5850;DHT22;2951;47.712;9.400;2023-10-09T11:38:48;21.80;99.90
5850;DHT22;2951;47.712;9.400;2023-10-09T11:41:16;21.80;99.90
5850;DHT22;2951;47.712;9.400;2023-10-09T11:43:50;21.80;99.90
5850;DHT22;2951;47.712;9.400;2023-10-09T11:46:22;21.90;99.90
5850;DHT22;2951;47.712;9.400;2023-10-09T11:49:16;22.00;99.90
5850;DHT22;2951;47.712;9.400;2023-10-09T11:51:46;22.10;99.90
5850;DHT22;2951;47.712;9.400;2023-10-09T11:54:32;22.20;99.90
5850;DHT22;2951;47.712;9.400;2023-10-09T11:56:59;22.10;99.90
5850;DHT22;2951;47.712;9.400;2023-10-09T11:59:32;21.90;99.90
5850;DHT22;2951;47.712;9.400;2023-10-09T12:02:09;21.90;99.90
5850;DHT22;2951;47.712;9.400;2023-10-09T12:04:39;21.90;99.90
5850;DHT22;2951;47.712;9.400;2023-10-09T12:07:12;22.10;99.90
5850;DHT22;2951;47.712;9.400;2023-10-09T12:09:39;22.10;99.90
5850;DHT22;2951;47.712;9.400;2023-10-09T12:12:06;22.30;99.90
5850;DHT22;2951;47.712;9.400;2023-10-09T12:14:37;22.20;99.90
5850;DHT22;2951;47.712;9.400;2023-10-09T12:17:04;22.20;99.90
5850;DHT22;2951;47.712;9.400;2023-10-09T12:19:35;22.20;99.90
5850;DHT22;2951;47.712;9.400;2023-10-09T12:22:02;22.20;99.90
5850;DHT22;2951;47.712;9.400;2023-10-09T12:24:33;22.20;99.90
5850;DHT22;2951;47.712;9.400;2023-10-09T12:27:00;22.10;99.90
5850;DHT22;2951;47.712;9.400;2023-10-09T12:29:27;22.10;99.90
5850;DHT22;2951;47.712;9.400;2023-10-09T12:31:56;22.10;99.90
5850;DHT22;2951;47.712;9.400;2023-10-09T12:34:26;22.00;99.90
5850;DHT22;2951;47.712;9.400;2023-10-09T12:36:55;21.90;99.90
5850;DHT22;2951;47.712;9.400;2023-10-09T12:39:22;21.90;99.90
5850;DHT22;2951;47.712;9.400;2023-10-09T12:41:48;21.80;99.90
5850;DHT22;2951;47.712;9.400;2023-10-09T12:44:15;21.80;99.90
5850;DHT22;2951;47.712;9.400;2023-10-09T12:46:46;21.80;99.90
5850;DHT22;2951;47.712;9.400;2023-10-09T12:49:20;21.80;99.90
5850;DHT22;2951;47.712;9.400;2023-10-09T12:51:54;21.80;99.90
5850;DHT22;2951;47.712;9.400;2023-10-09T12:54:24;21.70;99.90
5850;DHT22;2951;47.712;9.400;2023-10-09T12:56:54;21.60;99.90
5850;DHT22;2951;47.712;9.400;2023-10-09T12:59:21;21.60;99.90
5850;DHT22;2951;47.712;9.400;2023-10-09T13:01:49;21.50;99.90
5850;DHT22;2951;47.712;9.400;2023-10-09T13:04:19;21.50;99.90
5850;DHT22;2951;47.712;9.400;2023-10-09T13:06:48;21.40;99.90
5850;DHT22;2951;47.712;9.400;2023-10-09T13:09:18;21.30;99.90
5850;DHT22;2951;47.712;9.400;2023-10-09T13:12:09;21.40;99.90
5850;DHT22;2951;47.712;9.400;2023-10-09T13:14:46;21.40;99.90
5850;DHT22;2951;47.712;9.400;2023-10-09T13:17:16;21.40;99.90
5850;DHT22;2951;47.712;9.400;2023-10-09T13:19:43;21.30;99.90
5850;DHT22;2951;47.712;9.400;2023-10-09T13:22:12;21.20;99.90
5850;DHT22;2951;47.712;9.400;2023-10-09T13:24:41;21.10;99.90
5850;DHT22;2951;47.712;9.400;2023-10-09T13:27:09;21.10;99.90
5850;DHT22;2951;47.712;9.400;2023-10-09T13:29:37;21.00;99.90
5850;DHT22;2951;47.712;9.400;2023-10-09T13:32:06;21.00;99.90
5850;DHT22;2951;47.712;9.400;2023-10-09T13:34:40;20.90;99.90
5850;DHT22;2951;47.712;9.400;2023-10-09T13:37:15;20.90;99.90
5850;DHT22;2951;47.712;9.400;2023-10-09T13:39:48;20.90;99.90
5850;DHT22;2951;47.712;9.400;2023-10-09T13:42:22;20.80;99.90
5850;DHT22;2951;47.712;9.400;2023-10-09T13:44:52;20.70;99.90
5850;DHT22;2951;47.712;9.400;2023-10-09T13:47:23;20.60;99.90
5850;DHT22;2951;47.712;9.400;2023-10-09T13:49:58;20.50;99.90
5850;DHT22;2951;47.712;9.400;2023-10-09T13:52:26;20.40;99.90
5850;DHT22;2951;47.712;9.400;2023-10-09T13:54:53;20.40;99.90
5850;DHT22;2951;47.712;9.400;2023-10-09T13:57:21;20.30;99.90
5850;DHT22;2951;47.712;9.400;2023-10-09T13:59:57;20.20;99.90
5850;DHT22;2951;47.712;9.400;2023-10-09T14:02:28;20.10;99.90
5850;DHT22;2951;47.712;9.400;2023-10-09T14:04:56;20.10;99.90
5850;DHT22;2951;47.712;9.400;2023-10-09T14:07:27;20.00;99.90
5850;DHT22;2951;47.712;9.400;2023-10-09T14:09:54;19.90;99.90
5850;DHT22;2951;47.712;9.400;2023-10-09T14:12:34;19.90;99.90
5850;DHT22;2951;47.712;9.400;2023-10-09T14:15:01;19.90;99.90
5850;DHT22;2951;47.712;9.400;2023-10-09T14:17:30;20.00;99.90
5850;DHT22;2951;47.712;9.400;2023-10-09T14:19:57;19.90;99.90
5850;DHT22;2951;47.712;9.400;2023-10-09T14:22:50;19.90;99.90
5850;DHT22;2951;47.712;9.400;2023-10-09T14:25:19;20.00;99.90
5850;DHT22;2951;47.712;9.400;2023-10-09T14:27:47;19.90;99.90
5850;DHT22;2951;47.712;9.400;2023-10-09T14:30:21;20.10;99.90
5850;DHT22;2951;47.712;9.400;2023-10-09T14:32:58;20.10;99.90
5850;DHT22;2951;47.712;9.400;2023-10-09T14:35:24;19.90;99.90
5850;DHT22;2951;47.712;9.400;2023-10-09T14:37:56;19.80;99.90
5850;DHT22;2951;47.712;9.400;2023-10-09T14:40:28;19.80;99.90
5850;DHT22;2951;47.712;9.400;2023-10-09T14:42:58;19.70;99.90
5850;DHT22;2951;47.712;9.400;2023-10-09T14:45:25;19.80;99.90
5850;DHT22;2951;47.712;9.400;2023-10-09T14:47:58;19.80;99.90
5850;DHT22;2951;47.712;9.400;2023-10-09T14:50:26;19.80;99.90
5850;DHT22;2951;47.712;9.400;2023-10-09T14:52:56;19.70;99.90
5850;DHT22;2951;47.712;9.400;2023-10-09T14:55:23;19.70;99.90
5850;DHT22;2951;47.712;9.400;2023-10-09T14:57:58;19.90;99.90
5850;DHT22;2951;47.712;9.400;2023-10-09T15:00:25;19.90;99.90
5850;DHT22;2951;47.712;9.400;2023-10-09T15:02:53;20.00;99.90
5850;DHT22;2951;47.712;9.400;2023-10-09T15:05:19;20.10;99.90
5850;DHT22;2951;47.712;9.400;2023-10-09T15:07:50;20.20;99.90
5850;DHT22;2951;47.712;9.400;2023-10-09T15:10:16;20.40;99.90
5850;DHT22;2951;47.712;9.400;2023-10-09T15:12:45;20.40;99.90
5850;DHT22;2951;47.712;9.400;2023-10-09T15:15:13;20.50;99.90
5850;DHT22;2951;47.712;9.400;2023-10-09T15:17:41;20.50;99.90
5850;DHT22;2951;47.712;9.400;2023-10-09T15:20:11;20.50;99.90
5850;DHT22;2951;47.712;9.400;2023-10-09T15:22:41;20.50;99.90
5850;DHT22;2951;47.712;9.400;2023-10-09T15:25:08;20.50;99.90
5850;DHT22;2951;47.712;9.400;2023-10-09T15:27:34;20.50;99.90
5850;DHT22;2951;47.712;9.400;2023-10-09T15:30:01;20.50;99.90
5850;DHT22;2951;47.712;9.400;2023-10-09T15:32:28;20.50;99.90
5850;DHT22;2951;47.712;9.400;2023-10-09T15:34:56;20.50;99.90
5850;DHT22;2951;47.712;9.400;2023-10-09T15:37:23;20.40;99.90
5850;DHT22;2951;47.712;9.400;2023-10-09T15:39:50;20.40;99.90
5850;DHT22;2951;47.712;9.400;2023-10-09T15:42:16;20.30;99.90
5850;DHT22;2951;47.712;9.400;2023-10-09T15:44:43;20.10;99.90
5850;DHT22;2951;47.712;9.400;2023-10-09T15:47:14;20.00;99.90
5850;DHT22;2951;47.712;9.400;2023-10-09T15:49:43;19.90;99.90
5850;DHT22;2951;47.712;9.400;2023-10-09T15:52:11;19.80;99.90
5850;DHT22;2951;47.712;9.400;2023-10-09T15:54:40;19.70;99.90
5850;DHT22;2951;47.712;9.400;2023-10-09T15:57:09;19.70;99.90
5850;DHT22;2951;47.712;9.400;2023-10-09T15:59:39;19.60;99.90
5850;DHT22;2951;47.712;9.400;2023-10-09T16:02:06;19.50;99.90
5850;DHT22;2951;47.712;9.400;2023-10-09T16:04:34;19.50;99.90
5850;DHT22;2951;47.712;9.400;2023-10-09T16:07:01;19.50;99.90
5850;DHT22;2951;47.712;9.400;2023-10-09T16:09:31;19.40;99.90
5850;DHT22;2951;47.712;9.400;2023-10-09T16:12:07;19.40;99.90
5850;DHT22;2951;47.712;9.400;2023-10-09T16:14:35;19.30;99.90
5850;DHT22;2951;47.712;9.400;2023-10-09T16:17:02;19.10;99.90
5850;DHT22;2951;47.712;9.400;2023-10-09T16:19:31;19.10;99.90
5850;DHT22;2951;47.712;9.400;2023-10-09T16:22:03;19.00;99.90
5850;DHT22;2951;47.712;9.400;2023-10-09T16:24:33;19.00;99.90
5850;DHT22;2951;47.712;9.400;2023-10-09T16:27:09;18.90;99.90
5850;DHT22;2951;47.712;9.400;2023-10-09T16:29:36;18.70;99.90
5850;DHT22;2951;47.712;9.400;2023-10-09T16:32:05;18.50;99.90
5850;DHT22;2951;47.712;9.400;2023-10-09T16:34:33;18.40;99.90
5850;DHT22;2951;47.712;9.400;2023-10-09T16:37:00;18.30;99.90
5850;DHT22;2951;47.712;9.400;2023-10-09T16:39:27;18.40;99.90
5850;DHT22;2951;47.712;9.400;2023-10-09T16:42:01;18.30;99.90
5850;DHT22;2951;47.712;9.400;2023-10-09T16:44:31;18.20;99.90
5850;DHT22;2951;47.712;9.400;2023-10-09T16:47:01;18.20;99.90
5850;DHT22;2951;47.712;9.400;2023-10-09T16:49:27;18.10;99.90
5850;DHT22;2951;47.712;9.400;2023-10-09T16:51:57;18.10;99.90
5850;DHT22;2951;47.712;9.400;2023-10-09T16:54:24;17.90;99.90
5850;DHT22;2951;47.712;9.400;2023-10-09T16:56:51;17.90;99.90
5850;DHT22;2951;47.712;9.400;2023-10-09T16:59:20;17.80;99.90
5850;DHT22;2951;47.712;9.400;2023-10-09T17:01:48;17.70;99.90
5850;DHT22;2951;47.712;9.400;2023-10-09T17:04:15;17.70;99.90
5850;DHT22;2951;47.712;9.400;2023-10-09T17:06:49;17.70;99.90
5850;DHT22;2951;47.712;9.400;2023-10-09T17:09:22;17.70;99.90